Time,TemperatureF,DewpointF,PressureIn,WindDirection,WindDirectionDegrees,WindSpeedMPH,WindSpeedGustMPH,Humidity,HourlyPrecipIn,Conditions,Clouds,dailyrainin,SolarRadiationWatts/m^2,SoftwareType,DateUTC
2013-05-12 00:01:00,37.2,28.3,30.05,WNW,295,5.8,5.8,70,0.00,CLR,OVC,0.00,0.0,WeatherDisplay:10.37,2013-05-12 05:01:00,
2013-05-12 00:06:00,37.4,27.4,30.05,NW,308,4.6,4.9,67,0.00,-RA,OVC,0.00,0.0,WeatherDisplay:10.37,2013-05-12 05:06:00,
2013-05-12 00:11:00,37.4,27.4,30.05,West,277,5.8,5.8,67,0.00,-RA,OVC,0.00,0.0,WeatherDisplay:10.37,2013-05-12 05:11:00,
2013-05-12 00:16:00,37.4,27.1,30.05,NW,313,4.6,4.6,66,0.00,-RA,OVC,0.00,0.0,WeatherDisplay:10.37,2013-05-12 05:16:00,
2013-05-12 00:21:00,37.4,27.1,30.05,NNW,342,5.8,5.8,66,0.00,-RA,OVC,0.00,0.0,WeatherDisplay:10.37,2013-05-12 05:21:00,
2013-05-12 00:26:00,37.4,27.1,30.05,NNW,340,4.6,4.6,66,0.00,-RA,OVC,0.00,0.0,WeatherDisplay:10.37,2013-05-12 05:26:00,
2013-05-12 00:31:00,37.4,26.7,30.05,NNW,341,6.9,6.9,65,0.00,-RA,OVC,0.00,0.0,WeatherDisplay:10.37,2013-05-12 05:31:00,
2013-05-12 00:36:00,37.4,26.7,30.05,NW,324,6.9,6.9,65,0.00,-RA,OVC,0.00,0.0,WeatherDisplay:10.37,2013-05-12 05:36:00,
2013-05-12 00:41:00,37.4,26.7,30.05,NNW,328,6.9,6.9,65,0.00,-RA,OVC,0.00,0.0,WeatherDisplay:10.37,2013-05-12 05:41:00,
2013-05-12 00:46:00,37.4,26.3,30.05,WSW,253,5.8,5.8,64,0.00,-RA,OVC,0.00,0.0,WeatherDisplay:10.37,2013-05-12 05:46:00,
2013-05-12 00:51:00,37.2,26.5,30.05,NW,311,4.6,4.6,65,0.00,-RA,OVC,0.00,0.0,WeatherDisplay:10.37,2013-05-12 05:51:00,
2013-05-12 00:56:00,37.0,26.4,30.05,NW,311,5.8,5.8,65,0.00,-RA,OVC,0.00,0.0,WeatherDisplay:10.37,2013-05-12 05:56:00,
2013-05-12 01:01:00,37.0,26.4,30.05,NW,313,4.6,4.6,65,0.00,-RA,OVC,0.00,0.0,WeatherDisplay:10.37,2013-05-12 06:01:00,
2013-05-12 01:06:00,36.9,26.6,30.05,NW,322,4.6,4.6,66,0.00,FEW,OVC,0.00,0.0,WeatherDisplay:10.37,2013-05-12 06:06:00,
2013-05-12 01:11:00,36.7,26.4,30.05,WNW,294,4.6,4.6,66,0.00,FEW,OVC,0.00,0.0,WeatherDisplay:10.37,2013-05-12 06:11:00,
2013-05-12 01:16:00,36.7,26.4,30.05,NW,314,4.6,4.6,66,0.00,FEW,OVC,0.00,0.0,WeatherDisplay:10.37,2013-05-12 06:16:00,
2013-05-12 01:21:00,36.5,26.2,30.05,NNW,345,4.6,4.6,66,0.00,FEW,OVC,0.00,0.0,WeatherDisplay:10.37,2013-05-12 06:21:00,
2013-05-12 01:26:00,36.3,26.0,30.05,NNW,332,3.5,0.0,66,0.00,FEW,OVC,0.00,0.0,WeatherDisplay:10.37,2013-05-12 06:26:00,
2013-05-12 01:31:00,36.3,26.4,30.05,North,357,3.5,3.5,67,0.00,FEW,OVC,0.00,0.0,WeatherDisplay:10.37,2013-05-12 06:31:00,
2013-05-12 01:36:00,36.1,25.9,30.05,NNW,327,4.6,4.6,66,0.00,FEW,OVC,0.00,0.0,WeatherDisplay:10.37,2013-05-12 06:36:00,
2013-05-12 01:41:00,36.1,25.9,30.05,NNW,345,4.1,4.1,66,0.00,FEW,OVC,0.00,0.0,WeatherDisplay:10.37,2013-05-12 06:41:00,
2013-05-12 01:46:00,36.1,25.9,30.05,NNW,345,3.5,3.5,66,0.00,FEW,OVC,0.00,0.0,WeatherDisplay:10.37,2013-05-12 06:46:00,
2013-05-12 01:51:00,36.1,25.9,30.05,NW,324,4.6,4.6,66,0.00,FEW,OVC,0.00,0.0,WeatherDisplay:10.37,2013-05-12 06:51:00,
2013-05-12 01:56:00,36.1,25.9,30.05,WNW,289,5.8,5.8,66,0.00,FEW,OVC,0.00,0.0,WeatherDisplay:10.37,2013-05-12 06:56:00,
2013-05-12 02:01:00,36.0,25.7,30.05,NNW,332,5.8,5.8,66,0.00,FEW,OVC,0.00,0.0,WeatherDisplay:10.37,2013-05-12 07:01:00,
2013-05-12 02:06:00,35.8,25.5,30.05,NW,320,5.8,5.8,66,0.00,CLR,OVC,0.00,0.0,WeatherDisplay:10.37,2013-05-12 07:06:00,
2013-05-12 02:11:00,35.8,25.5,30.05,NNW,335,4.6,4.6,66,0.00,CLR,OVC,0.00,0.0,WeatherDisplay:10.37,2013-05-12 07:11:00,
2013-05-12 02:16:00,35.8,25.5,30.05,NNW,331,5.8,5.8,66,0.00,CLR,OVC,0.00,0.0,WeatherDisplay:10.37,2013-05-12 07:16:00,
2013-05-12 02:21:00,35.8,25.5,30.05,NW,317,6.0,9.0,66,0.00,CLR,OVC,0.00,0.0,WeatherDisplay:10.37,2013-05-12 07:21:00,
2013-05-12 02:26:00,35.8,25.2,30.05,NNW,334,4.6,4.6,65,0.00,CLR,OVC,0.00,0.0,WeatherDisplay:10.37,2013-05-12 07:26:00,
2013-05-12 02:31:00,35.8,25.2,30.05,NNW,338,5.8,5.8,65,0.00,CLR,OVC,0.00,0.0,WeatherDisplay:10.37,2013-05-12 07:31:00,
2013-05-12 02:36:00,35.8,25.2,30.05,NW,310,6.9,6.9,65,0.00,CLR,OVC,0.00,0.0,WeatherDisplay:10.37,2013-05-12 07:36:00,
2013-05-12 02:41:00,35.8,25.2,30.05,WNW,297,5.8,5.8,65,0.00,CLR,OVC,0.00,0.0,WeatherDisplay:10.37,2013-05-12 07:41:00,
2013-05-12 02:46:00,35.6,25.0,30.05,WNW,283,4.6,4.6,65,0.00,CLR,OVC,0.00,0.0,WeatherDisplay:10.37,2013-05-12 07:46:00,
2013-05-12 02:51:00,35.4,25.2,30.05,NNW,336,3.5,3.5,66,0.00,CLR,OVC,0.00,0.0,WeatherDisplay:10.37,2013-05-12 07:51:00,
2013-05-12 02:56:00,35.4,25.2,30.05,NW,317,4.6,4.6,66,0.00,CLR,OVC,0.00,0.0,WeatherDisplay:10.37,2013-05-12 07:56:00,
2013-05-12 03:01:00,35.2,25.0,30.08,North,353,3.5,3.5,66,0.00,CLR,OVC,0.00,0.0,WeatherDisplay:10.37,2013-05-12 08:01:00,
2013-05-12 03:06:00,35.2,25.0,30.08,NW,310,4.6,4.6,66,0.00,CLR,OVC,0.00,0.0,WeatherDisplay:10.37,2013-05-12 08:06:00,
2013-05-12 03:11:00,35.1,24.8,30.08,NNW,331,5.8,5.8,66,0.00,CLR,OVC,0.00,0.0,WeatherDisplay:10.37,2013-05-12 08:11:00,
2013-05-12 03:16:00,34.9,24.7,30.08,NW,325,4.6,4.6,66,0.00,CLR,OVC,0.00,0.0,WeatherDisplay:10.37,2013-05-12 08:16:00,
2013-05-12 03:21:00,34.9,24.7,30.08,WNW,298,4.6,4.6,66,0.00,CLR,OVC,0.00,0.0,WeatherDisplay:10.37,2013-05-12 08:21:00,
2013-05-12 03:26:00,34.9,24.7,30.08,NW,311,4.6,4.6,66,0.00,CLR,OVC,0.00,0.0,WeatherDisplay:10.37,2013-05-12 08:26:00,
2013-05-12 03:31:00,34.7,24.5,30.08,NNW,328,5.8,5.8,66,0.00,CLR,OVC,0.00,0.0,WeatherDisplay:10.37,2013-05-12 08:31:00,
2013-05-12 03:36:00,34.7,24.5,30.08,NNW,340,3.5,3.6,66,0.00,CLR,OVC,0.00,0.0,WeatherDisplay:10.37,2013-05-12 08:36:00,
2013-05-12 03:41:00,34.7,24.5,30.08,North,353,4.6,4.6,66,0.00,CLR,OVC,0.00,0.0,WeatherDisplay:10.37,2013-05-12 08:41:00,
2013-05-12 03:46:00,34.9,24.7,30.08,NW,321,4.6,4.6,66,0.00,CLR,OVC,0.00,0.0,WeatherDisplay:10.37,2013-05-12 08:46:00,
2013-05-12 03:50:00,35.1,24.8,30.08,NW,323,4.6,4.6,66,0.00,CLR,OVC,0.00,0.0,WeatherDisplay:10.37,2013-05-12 08:50:00,
2013-05-12 03:56:00,35.1,24.5,30.08,NW,322,4.6,4.6,65,0.00,CLR,OVC,0.00,0.0,WeatherDisplay:10.37,2013-05-12 08:56:00,
2013-05-12 04:00:00,35.1,24.5,30.08,NW,322,4.6,4.6,65,0.00,CLR,OVC,0.00,0.0,WeatherDisplay:10.37,2013-05-12 09:00:00,
2013-05-12 04:05:00,34.9,24.3,30.08,NNW,335,6.9,6.9,65,0.00,CLR,OVC,0.00,0.0,WeatherDisplay:10.37,2013-05-12 09:05:00,
2013-05-12 04:10:00,35.1,24.5,30.08,NW,322,5.8,5.8,65,0.00,CLR,OVC,0.00,0.0,WeatherDisplay:10.37,2013-05-12 09:10:00,
2013-05-12 04:15:00,35.2,24.6,30.08,NNW,338,5.8,5.8,65,0.00,CLR,OVC,0.00,0.0,WeatherDisplay:10.37,2013-05-12 09:15:00,
2013-05-12 04:20:00,35.4,24.8,30.08,NW,326,8.1,8.1,65,0.00,CLR,OVC,0.00,0.0,WeatherDisplay:10.37,2013-05-12 09:20:00,
2013-05-12 04:25:00,35.4,24.8,30.08,North,7,8.1,8.1,65,0.00,CLR,OVC,0.00,0.0,WeatherDisplay:10.37,2013-05-12 09:25:00,
2013-05-12 04:30:00,35.6,25.0,30.08,NNW,329,5.8,5.8,65,0.00,CLR,OVC,0.00,0.0,WeatherDisplay:10.37,2013-05-12 09:30:00,
2013-05-12 04:35:00,35.6,25.0,30.08,NNW,329,4.6,4.6,65,0.00,CLR,OVC,0.00,0.0,WeatherDisplay:10.37,2013-05-12 09:35:00,
2013-05-12 04:40:00,35.4,24.8,30.08,WNW,295,3.5,3.5,65,0.00,CLR,OVC,0.00,0.0,WeatherDisplay:10.37,2013-05-12 09:40:00,
2013-05-12 04:45:00,35.4,24.8,30.08,NNW,342,8.1,8.1,65,0.00,CLR,OVC,0.00,0.0,WeatherDisplay:10.37,2013-05-12 09:45:00,
2013-05-12 04:50:00,35.2,24.6,30.08,North,353,6.9,6.9,65,0.00,CLR,OVC,0.00,0.0,WeatherDisplay:10.37,2013-05-12 09:50:00,
2013-05-12 04:55:00,35.2,24.6,30.08,NW,326,4.6,4.6,65,0.00,CLR,OVC,0.00,0.0,WeatherDisplay:10.37,2013-05-12 09:55:00,
2013-05-12 05:00:00,35.2,24.6,30.08,North,0,8.1,8.1,65,0.00,CLR,OVC,0.00,0.0,WeatherDisplay:10.37,2013-05-12 10:00:00,
2013-05-12 05:05:00,35.1,24.5,30.08,WNW,298,5.8,5.8,65,0.00,CLR,OVC,0.00,0.0,WeatherDisplay:10.37,2013-05-12 10:05:00,
2013-05-12 05:10:00,34.9,24.7,30.08,NW,326,2.3,2.3,66,0.00,CLR,OVC,0.00,0.0,WeatherDisplay:10.37,2013-05-12 10:10:00,
2013-05-12 05:15:00,34.7,24.5,30.08,NW,315,3.5,3.5,66,0.00,CLR,OVC,0.00,0.0,WeatherDisplay:10.37,2013-05-12 10:15:00,
2013-05-12 05:20:00,34.5,24.3,30.08,North,0,3.5,3.5,66,0.00,CLR,OVC,0.00,0.0,WeatherDisplay:10.37,2013-05-12 10:20:00,
2013-05-12 05:25:00,34.3,24.2,30.08,NW,316,3.5,3.5,66,0.00,CLR,OVC,0.00,0.0,WeatherDisplay:10.37,2013-05-12 10:25:00,
2013-05-12 05:30:00,34.2,24.0,30.08,NNW,335,3.5,3.5,66,0.00,CLR,OVC,0.00,0.0,WeatherDisplay:10.37,2013-05-12 10:30:00,
2013-05-12 05:35:00,34.0,23.8,30.08,NW,319,3.5,3.5,66,0.00,CLR,OVC,0.00,0.0,WeatherDisplay:10.37,2013-05-12 10:35:00,
2013-05-12 05:40:00,33.8,23.6,30.08,NNW,329,3.5,0.0,66,0.00,CLR,OVC,0.00,0.0,WeatherDisplay:10.37,2013-05-12 10:40:00,
2013-05-12 05:45:00,33.8,23.6,30.08,NNW,327,2.3,0.0,66,0.00,CLR,OVC,0.00,0.0,WeatherDisplay:10.37,2013-05-12 10:45:00,
2013-05-12 05:50:00,33.6,23.5,30.08,WNW,297,3.5,3.5,66,0.00,CLR,OVC,0.00,0.0,WeatherDisplay:10.37,2013-05-12 10:50:00,
2013-05-12 05:55:00,33.8,23.6,30.08,NW,318,2.3,0.0,66,0.00,CLR,OVC,0.00,0.0,WeatherDisplay:10.37,2013-05-12 10:55:00,
2013-05-12 06:00:00,33.8,24.0,30.11,NW,318,0.0,0.0,67,0.00,CLR,OVC,0.00,0.0,WeatherDisplay:10.37,2013-05-12 11:00:00,
2013-05-12 06:05:00,33.8,24.0,30.11,NW,323,2.3,0.0,67,0.00,CLR,OVC,0.00,0.0,WeatherDisplay:10.37,2013-05-12 11:05:00,
2013-05-12 06:10:00,33.8,23.6,30.11,NW,322,2.8,0.0,66,0.00,CLR,OVC,0.00,0.0,WeatherDisplay:10.37,2013-05-12 11:10:00,
2013-05-12 06:15:00,34.0,24.2,30.11,NNW,333,2.3,0.0,67,0.00,CLR,OVC,0.00,0.0,WeatherDisplay:10.37,2013-05-12 11:15:00,
2013-05-12 06:20:00,34.2,24.0,30.11,WNW,302,3.7,3.7,66,0.00,CLR,OVC,0.00,0.0,WeatherDisplay:10.37,2013-05-12 11:20:00,
2013-05-12 06:25:00,34.3,24.2,30.11,NNW,337,3.5,0.0,66,0.00,CLR,OVC,0.00,0.0,WeatherDisplay:10.37,2013-05-12 11:25:00,
2013-05-12 06:30:00,34.5,24.3,30.11,NNW,338,3.5,3.5,66,0.00,CLR,OVC,0.00,0.0,WeatherDisplay:10.37,2013-05-12 11:30:00,
2013-05-12 06:35:00,34.9,24.7,30.11,WNW,295,3.5,0.0,66,0.00,CLR,OVC,0.00,0.0,WeatherDisplay:10.37,2013-05-12 11:35:00,
2013-05-12 06:40:00,35.1,24.5,30.11,NW,313,3.5,3.5,65,0.00,CLR,OVC,0.00,0.0,WeatherDisplay:10.37,2013-05-12 11:40:00,
2013-05-12 06:45:00,35.2,24.6,30.11,NW,316,4.1,4.1,65,0.00,CLR,OVC,0.00,0.0,WeatherDisplay:10.37,2013-05-12 11:45:00,
2013-05-12 06:50:00,35.4,24.8,30.11,NW,321,4.6,4.6,65,0.00,CLR,OVC,0.00,0.0,WeatherDisplay:10.37,2013-05-12 11:50:00,
2013-05-12 06:55:00,35.4,24.8,30.11,NW,316,3.5,3.5,65,0.00,CLR,OVC,0.00,0.0,WeatherDisplay:10.37,2013-05-12 11:55:00,
2013-05-12 07:00:00,35.4,24.8,30.11,NW,310,3.5,0.0,65,0.00,CLR,OVC,0.00,0.0,WeatherDisplay:10.37,2013-05-12 12:00:00,
2013-05-12 07:05:00,35.2,24.6,30.11,NNW,328,3.5,3.5,65,0.00,CLR,OVC,0.00,0.0,WeatherDisplay:10.37,2013-05-12 12:05:00,
2013-05-12 07:10:00,35.2,24.6,30.11,WNW,301,4.6,4.6,65,0.00,CLR,OVC,0.00,0.0,WeatherDisplay:10.37,2013-05-12 12:10:00,
2013-05-12 07:15:00,35.4,24.8,30.11,NW,318,3.5,3.5,65,0.00,CLR,OVC,0.00,0.0,WeatherDisplay:10.37,2013-05-12 12:15:00,
2013-05-12 07:20:00,35.6,24.6,30.11,NW,310,4.6,4.6,64,0.00,CLR,OVC,0.00,0.0,WeatherDisplay:10.37,2013-05-12 12:20:00,
2013-05-12 07:25:00,35.8,24.8,30.11,NW,309,4.6,4.6,64,0.00,CLR,OVC,0.00,0.0,WeatherDisplay:10.37,2013-05-12 12:25:00,
2013-05-12 07:30:00,36.1,25.1,30.11,NW,325,5.8,5.8,64,0.00,CLR,OVC,0.00,0.0,WeatherDisplay:10.37,2013-05-12 12:30:00,
2013-05-12 07:35:00,36.5,25.1,30.11,NNW,338,5.8,5.8,63,0.00,CLR,OVC,0.00,0.0,WeatherDisplay:10.37,2013-05-12 12:35:00,
2013-05-12 07:40:00,36.7,24.9,30.11,WNW,300,6.9,6.9,62,0.00,CLR,OVC,0.00,0.0,WeatherDisplay:10.37,2013-05-12 12:40:00,
2013-05-12 07:45:00,36.9,25.0,30.11,North,353,10.4,10.4,62,0.00,CLR,OVC,0.00,0.0,WeatherDisplay:10.37,2013-05-12 12:45:00,
2013-05-12 07:50:00,37.0,24.8,30.11,North,353,8.1,8.1,61,0.00,CLR,OVC,0.00,0.0,WeatherDisplay:10.37,2013-05-12 12:50:00,
2013-05-12 07:55:00,37.0,24.4,30.11,North,4,6.9,6.9,60,0.00,CLR,OVC,0.00,0.0,WeatherDisplay:10.37,2013-05-12 12:55:00,
2013-05-12 08:00:00,36.9,24.3,30.11,NNE,23,10.4,10.4,60,0.00,CLR,OVC,0.00,0.0,WeatherDisplay:10.37,2013-05-12 13:00:00,
2013-05-12 08:05:00,36.7,24.9,30.11,North,5,6.9,6.9,62,0.00,CLR,OVC,0.00,0.0,WeatherDisplay:10.37,2013-05-12 13:05:00,
2013-05-12 08:10:00,36.7,24.5,30.11,NW,320,9.0,9.0,61,0.00,CLR,OVC,0.00,0.0,WeatherDisplay:10.37,2013-05-12 13:10:00,
2013-05-12 08:15:00,36.7,24.5,30.11,NNW,341,5.8,5.8,61,0.00,CLR,OVC,0.00,0.0,WeatherDisplay:10.37,2013-05-12 13:15:00,
2013-05-12 08:20:00,36.5,24.3,30.11,North,4,13.8,13.8,61,0.00,CLR,OVC,0.00,0.0,WeatherDisplay:10.37,2013-05-12 13:20:00,
2013-05-12 08:25:00,36.7,24.9,30.11,NW,324,11.5,11.5,62,0.00,CLR,OVC,0.00,0.0,WeatherDisplay:10.37,2013-05-12 13:25:00,
2013-05-12 08:30:00,37.0,24.8,30.11,NW,317,10.4,10.4,61,0.00,CLR,OVC,0.00,0.0,WeatherDisplay:10.37,2013-05-12 13:30:00,
2013-05-12 08:35:00,37.8,24.7,30.11,North,10,6.9,6.9,59,0.00,CLR,OVC,0.00,0.0,WeatherDisplay:10.37,2013-05-12 13:35:00,
2013-05-12 08:40:00,37.9,24.9,30.11,NNW,336,8.1,8.1,59,0.00,CLR,OVC,0.00,0.0,WeatherDisplay:10.37,2013-05-12 13:40:00,
2013-05-12 08:45:00,38.1,24.6,30.11,NW,318,6.9,6.9,58,0.00,CLR,OVC,0.00,0.0,WeatherDisplay:10.37,2013-05-12 13:45:00,
2013-05-12 08:50:00,38.1,24.6,30.11,NNW,344,5.8,5.8,58,0.00,CLR,OVC,0.00,0.0,WeatherDisplay:10.37,2013-05-12 13:50:00,
2013-05-12 08:55:00,38.1,24.6,30.11,NW,309,6.9,6.9,58,0.00,CLR,OVC,0.00,0.0,WeatherDisplay:10.37,2013-05-12 13:55:00,
2013-05-12 09:00:00,38.3,24.4,30.11,NNW,334,10.4,10.4,57,0.00,CLR,OVC,0.00,0.0,WeatherDisplay:10.37,2013-05-12 14:00:00,
2013-05-12 09:05:00,38.3,24.8,30.11,NE,36,9.2,9.2,58,0.00,OVC,,0.00,0.0,WeatherDisplay:10.37,2013-05-12 14:05:00,
2013-05-12 09:10:00,38.5,25.0,30.11,North,353,10.4,10.4,58,0.00,OVC,,0.00,0.0,WeatherDisplay:10.37,2013-05-12 14:10:00,
2013-05-12 09:15:00,38.7,25.1,30.11,NW,314,6.9,6.9,58,0.00,OVC,,0.00,0.0,WeatherDisplay:10.37,2013-05-12 14:15:00,
2013-05-12 09:20:00,38.7,25.1,30.11,NW,305,6.9,6.9,58,0.00,OVC,,0.00,0.0,WeatherDisplay:10.37,2013-05-12 14:20:00,
2013-05-12 09:25:00,38.7,24.7,30.11,West,264,5.8,5.8,57,0.00,OVC,,0.00,0.0,WeatherDisplay:10.37,2013-05-12 14:25:00,
2013-05-12 09:30:00,38.8,25.3,30.11,North,357,5.8,5.8,58,0.00,OVC,,0.00,0.0,WeatherDisplay:10.37,2013-05-12 14:30:00,
2013-05-12 09:35:00,38.8,25.3,30.11,WNW,301,5.8,5.8,58,0.00,OVC,,0.00,0.0,WeatherDisplay:10.37,2013-05-12 14:35:00,
2013-05-12 09:40:00,39.0,25.5,30.11,NW,308,5.8,5.8,58,0.00,OVC,,0.00,0.0,WeatherDisplay:10.37,2013-05-12 14:40:00,
2013-05-12 09:45:00,39.4,25.4,30.11,NNW,340,4.6,4.6,57,0.00,OVC,,0.00,0.0,WeatherDisplay:10.37,2013-05-12 14:45:00,
2013-05-12 09:50:00,39.9,26.3,30.11,NNW,337,5.8,5.8,58,0.00,OVC,,0.00,0.0,WeatherDisplay:10.37,2013-05-12 14:50:00,
2013-05-12 09:55:00,40.6,27.4,30.11,WNW,303,4.6,4.6,59,0.00,OVC,,0.00,0.0,WeatherDisplay:10.37,2013-05-12 14:55:00,
2013-05-12 10:00:00,41.7,27.2,30.11,WNW,303,5.8,5.8,56,0.00,OVC,,0.00,0.0,WeatherDisplay:10.37,2013-05-12 15:00:00,
2013-05-12 10:05:00,42.3,27.2,30.11,North,357,9.2,9.2,55,0.00,BKN,OVC,0.00,0.0,WeatherDisplay:10.37,2013-05-12 15:05:00,
2013-05-12 10:10:00,42.1,27.5,30.11,NNW,332,5.8,5.8,56,0.00,BKN,OVC,0.00,0.0,WeatherDisplay:10.37,2013-05-12 15:10:00,
2013-05-12 10:15:00,41.7,27.2,30.11,North,353,3.7,3.7,56,0.00,BKN,OVC,0.00,0.0,WeatherDisplay:10.37,2013-05-12 15:15:00,
2013-05-12 10:20:00,42.3,27.2,30.11,NNW,331,5.8,5.8,55,0.00,BKN,OVC,0.00,0.0,WeatherDisplay:10.37,2013-05-12 15:20:00,
2013-05-12 10:25:00,41.5,26.6,30.11,NW,306,4.6,4.6,55,0.00,BKN,OVC,0.00,0.0,WeatherDisplay:10.37,2013-05-12 15:25:00,
2013-05-12 10:30:00,41.4,26.4,30.11,North,353,4.6,4.6,55,0.00,BKN,OVC,0.00,0.0,WeatherDisplay:10.37,2013-05-12 15:30:00,
2013-05-12 10:35:00,41.5,26.6,30.11,NNW,334,6.9,6.9,55,0.00,BKN,OVC,0.00,0.0,WeatherDisplay:10.37,2013-05-12 15:35:00,
2013-05-12 10:40:00,42.4,27.4,30.11,North,0,8.1,8.1,55,0.00,BKN,OVC,0.00,0.0,WeatherDisplay:10.37,2013-05-12 15:40:00,
2013-05-12 10:45:00,43.0,27.5,30.11,NNE,17,5.8,8.0,54,0.00,BKN,OVC,0.00,0.0,WeatherDisplay:10.37,2013-05-12 15:45:00,
2013-05-12 10:50:00,43.3,27.8,30.11,NNW,331,8.1,8.1,54,0.00,BKN,OVC,0.00,0.0,WeatherDisplay:10.37,2013-05-12 15:50:00,
2013-05-12 10:55:00,43.5,28.0,30.11,North,357,8.1,8.1,54,0.00,BKN,OVC,0.00,0.0,WeatherDisplay:10.37,2013-05-12 15:55:00,
2013-05-12 11:00:00,43.7,28.1,30.11,NW,320,8.1,8.1,54,0.00,BKN,OVC,0.00,0.0,WeatherDisplay:10.37,2013-05-12 16:00:00,
2013-05-12 11:05:00,44.2,28.6,30.11,NW,319,6.9,6.9,54,0.00,SCT,OVC,0.00,0.0,WeatherDisplay:10.37,2013-05-12 16:05:00,
2013-05-12 11:10:00,44.2,28.6,30.11,NW,313,4.6,4.6,54,0.00,SCT,OVC,0.00,0.0,WeatherDisplay:10.37,2013-05-12 16:10:00,
2013-05-12 11:15:00,43.3,27.8,30.11,NW,318,5.8,5.8,54,0.00,SCT,OVC,0.00,0.0,WeatherDisplay:10.37,2013-05-12 16:15:00,
2013-05-12 11:20:00,43.5,28.0,30.11,North,0,4.6,4.6,54,0.00,SCT,OVC,0.00,0.0,WeatherDisplay:10.37,2013-05-12 16:20:00,
2013-05-12 11:25:00,44.8,28.7,30.11,North,350,6.9,6.9,53,0.00,SCT,OVC,0.00,0.0,WeatherDisplay:10.37,2013-05-12 16:25:00,
2013-05-12 11:30:00,45.5,29.3,30.11,WNW,286,4.6,4.6,53,0.00,SCT,OVC,0.00,0.0,WeatherDisplay:10.37,2013-05-12 16:30:00,
2013-05-12 11:35:00,46.0,29.8,30.11,NNW,334,8.5,8.5,53,0.00,SCT,OVC,0.00,0.0,WeatherDisplay:10.37,2013-05-12 16:35:00,
2013-05-12 11:40:00,46.0,29.8,30.11,NW,321,4.6,4.6,53,0.00,SCT,OVC,0.00,0.0,WeatherDisplay:10.37,2013-05-12 16:40:00,
2013-05-12 11:45:00,45.3,29.2,30.11,WNW,291,5.8,5.8,53,0.00,SCT,OVC,0.00,0.0,WeatherDisplay:10.37,2013-05-12 16:45:00,
2013-05-12 11:50:00,44.8,28.7,30.11,WNW,302,5.8,5.8,53,0.00,SCT,OVC,0.00,0.0,WeatherDisplay:10.37,2013-05-12 16:50:00,
2013-05-12 11:55:00,45.5,29.3,30.11,NNW,328,5.8,5.8,53,0.00,SCT,OVC,0.00,0.0,WeatherDisplay:10.37,2013-05-12 16:55:00,
2013-05-12 12:00:00,46.4,29.7,30.11,North,0,6.0,6.0,52,0.00,SCT,OVC,0.00,0.0,WeatherDisplay:10.37,2013-05-12 17:00:00,
2013-05-12 12:05:00,46.9,30.2,30.11,SE,127,4.6,4.6,52,0.00,SCT,OVC,0.00,0.0,WeatherDisplay:10.37,2013-05-12 17:05:00,
2013-05-12 12:10:00,46.9,30.2,30.11,NW,305,6.9,6.9,52,0.00,SCT,OVC,0.00,0.0,WeatherDisplay:10.37,2013-05-12 17:10:00,
2013-05-12 12:14:00,46.8,30.0,30.08,WNW,294,4.6,4.6,52,0.00,SCT,OVC,0.00,0.0,WeatherDisplay:10.37,2013-05-12 17:14:00,
2013-05-12 12:19:00,46.8,30.0,30.08,SW,227,4.6,4.6,52,0.00,SCT,OVC,0.00,0.0,WeatherDisplay:10.37,2013-05-12 17:19:00,
2013-05-12 12:24:00,47.8,31.0,30.08,NW,306,3.5,3.5,52,0.00,SCT,OVC,0.00,0.0,WeatherDisplay:10.37,2013-05-12 17:24:00,
2013-05-12 12:29:00,48.4,31.5,30.08,WNW,285,4.6,4.6,52,0.00,SCT,OVC,0.00,0.0,WeatherDisplay:10.37,2013-05-12 17:29:00,
2013-05-12 12:34:00,48.4,31.5,30.08,WNW,301,4.6,4.6,52,0.00,SCT,OVC,0.00,0.0,WeatherDisplay:10.37,2013-05-12 17:34:00,
2013-05-12 12:39:00,48.0,31.2,30.08,NNW,335,4.6,4.6,52,0.00,SCT,OVC,0.00,0.0,WeatherDisplay:10.37,2013-05-12 17:39:00,
2013-05-12 12:44:00,47.5,30.7,30.08,WNW,297,3.5,3.5,52,0.00,SCT,OVC,0.00,0.0,WeatherDisplay:10.37,2013-05-12 17:44:00,
2013-05-12 12:49:00,48.2,31.4,30.08,NNW,327,4.6,4.6,52,0.00,SCT,OVC,0.00,0.0,WeatherDisplay:10.37,2013-05-12 17:49:00,
2013-05-12 12:54:00,48.6,31.7,30.08,WNW,284,4.6,4.6,52,0.00,SCT,OVC,0.00,0.0,WeatherDisplay:10.37,2013-05-12 17:54:00,
2013-05-12 12:59:00,48.0,31.2,30.08,WSW,255,9.2,9.2,52,0.00,SCT,OVC,0.00,0.0,WeatherDisplay:10.37,2013-05-12 17:59:00,
2013-05-12 13:04:00,48.4,31.5,30.08,WNW,295,4.6,4.6,52,0.00,FEW,OVC,0.00,0.0,WeatherDisplay:10.37,2013-05-12 18:04:00,
2013-05-12 13:09:00,48.4,31.5,30.08,WNW,285,6.4,6.4,52,0.00,FEW,OVC,0.00,0.0,WeatherDisplay:10.37,2013-05-12 18:09:00,
2013-05-12 13:14:00,48.4,31.1,30.08,NNW,346,4.6,4.6,51,0.00,FEW,OVC,0.00,0.0,WeatherDisplay:10.37,2013-05-12 18:14:00,
2013-05-12 13:19:00,48.6,31.2,30.08,NW,315,8.1,8.1,51,0.00,FEW,OVC,0.00,0.0,WeatherDisplay:10.37,2013-05-12 18:19:00,
2013-05-12 13:24:00,49.1,32.2,30.08,West,269,4.6,4.6,52,0.00,FEW,OVC,0.00,0.0,WeatherDisplay:10.37,2013-05-12 18:24:00,
2013-05-12 13:29:00,49.3,31.9,30.08,NW,308,5.5,5.5,51,0.00,FEW,OVC,0.00,0.0,WeatherDisplay:10.37,2013-05-12 18:29:00,
2013-05-12 13:34:00,49.5,32.1,30.08,NNW,344,5.8,5.8,51,0.00,FEW,OVC,0.00,0.0,WeatherDisplay:10.37,2013-05-12 18:34:00,
2013-05-12 13:39:00,49.5,32.1,30.08,WNW,296,4.6,4.6,51,0.00,FEW,OVC,0.00,0.0,WeatherDisplay:10.37,2013-05-12 18:39:00,
2013-05-12 13:44:00,48.9,31.6,30.05,NNW,330,4.6,4.6,51,0.00,FEW,OVC,0.00,0.0,WeatherDisplay:10.37,2013-05-12 18:44:00,
2013-05-12 13:49:00,49.6,32.2,30.05,WSW,244,5.8,5.8,51,0.00,FEW,OVC,0.00,0.0,WeatherDisplay:10.37,2013-05-12 18:49:00,
2013-05-12 13:54:00,49.6,31.2,30.05,NNW,330,5.8,5.8,49,0.00,FEW,OVC,0.00,0.0,WeatherDisplay:10.37,2013-05-12 18:54:00,
2013-05-12 13:59:00,49.1,31.7,30.05,WNW,301,3.5,3.5,51,0.00,FEW,OVC,0.00,0.0,WeatherDisplay:10.37,2013-05-12 18:59:00,
2013-05-12 14:04:00,50.4,32.9,30.05,NNW,333,5.8,5.8,51,0.00,BKN,OVC,0.00,0.0,WeatherDisplay:10.37,2013-05-12 19:04:00,
2013-05-12 14:09:00,50.4,32.9,30.05,West,260,5.8,5.8,51,0.00,BKN,OVC,0.00,0.0,WeatherDisplay:10.37,2013-05-12 19:09:00,
2013-05-12 14:14:00,51.3,33.7,30.05,WNW,282,4.6,4.6,51,0.00,BKN,OVC,0.00,0.0,WeatherDisplay:10.37,2013-05-12 19:14:00,
2013-05-12 14:19:00,51.8,34.2,30.05,North,353,5.8,5.8,51,0.00,BKN,OVC,0.00,0.0,WeatherDisplay:10.37,2013-05-12 19:19:00,
2013-05-12 14:24:00,51.4,33.9,30.05,WNW,290,4.6,4.6,51,0.00,BKN,OVC,0.00,0.0,WeatherDisplay:10.37,2013-05-12 19:24:00,
2013-05-12 14:29:00,50.9,33.4,30.05,WNW,297,3.5,3.5,51,0.00,BKN,OVC,0.00,0.0,WeatherDisplay:10.37,2013-05-12 19:29:00,
2013-05-12 14:34:00,50.2,32.7,30.05,NNW,337,5.8,5.8,51,0.00,BKN,OVC,0.00,0.0,WeatherDisplay:10.37,2013-05-12 19:34:00,
2013-05-12 14:39:00,50.9,33.4,30.05,NNW,328,8.1,8.1,51,0.00,BKN,OVC,0.00,0.0,WeatherDisplay:10.37,2013-05-12 19:39:00,
2013-05-12 14:44:00,50.9,33.4,30.05,NW,312,6.9,6.9,51,0.00,BKN,OVC,0.00,0.0,WeatherDisplay:10.37,2013-05-12 19:44:00,
2013-05-12 14:49:00,50.7,33.2,30.05,NW,319,3.5,3.5,51,0.00,BKN,OVC,0.00,0.0,WeatherDisplay:10.37,2013-05-12 19:49:00,
2013-05-12 14:54:00,50.7,33.2,30.05,SW,233,4.6,4.6,51,0.00,BKN,OVC,0.00,0.0,WeatherDisplay:10.37,2013-05-12 19:54:00,
2013-05-12 14:59:00,50.2,32.7,30.05,WNW,301,4.6,4.6,51,0.00,BKN,OVC,0.00,0.0,WeatherDisplay:10.37,2013-05-12 19:59:00,
2013-05-12 15:04:00,49.8,31.4,30.05,NNW,334,5.8,5.8,49,0.00,SCT,OVC,0.00,0.0,WeatherDisplay:10.37,2013-05-12 20:04:00,
2013-05-12 15:09:00,49.6,32.2,30.05,NW,317,3.5,3.5,51,0.00,SCT,OVC,0.00,0.0,WeatherDisplay:10.37,2013-05-12 20:09:00,
2013-05-12 15:14:00,49.8,32.4,30.05,NW,318,3.5,3.5,51,0.00,SCT,OVC,0.00,0.0,WeatherDisplay:10.37,2013-05-12 20:14:00,
2013-05-12 15:19:00,49.8,31.4,30.05,WNW,297,6.9,6.9,49,0.00,SCT,OVC,0.00,0.0,WeatherDisplay:10.37,2013-05-12 20:19:00,
2013-05-12 15:24:00,50.0,32.6,30.05,NNW,334,4.6,4.6,51,0.00,SCT,OVC,0.00,0.0,WeatherDisplay:10.37,2013-05-12 20:24:00,
2013-05-12 15:29:00,50.9,33.4,30.05,North,0,3.5,3.5,51,0.00,SCT,OVC,0.00,0.0,WeatherDisplay:10.37,2013-05-12 20:29:00,
2013-05-12 15:34:00,51.1,33.6,30.05,NNW,343,5.8,5.8,51,0.00,SCT,OVC,0.00,0.0,WeatherDisplay:10.37,2013-05-12 20:34:00,
2013-05-12 15:39:00,51.1,32.6,30.05,NW,314,5.8,5.8,49,0.00,SCT,OVC,0.00,0.0,WeatherDisplay:10.37,2013-05-12 20:39:00,
2013-05-12 15:44:00,51.3,32.7,30.05,NNW,335,6.9,6.9,49,0.00,SCT,OVC,0.00,0.0,WeatherDisplay:10.37,2013-05-12 20:44:00,
2013-05-12 15:49:00,51.4,32.9,30.05,NNW,346,5.8,5.8,49,0.00,SCT,OVC,0.00,0.0,WeatherDisplay:10.37,2013-05-12 20:49:00,
2013-05-12 15:54:00,51.8,32.7,30.05,West,274,5.8,5.8,48,0.00,SCT,OVC,0.00,0.0,WeatherDisplay:10.37,2013-05-12 20:54:00,
2013-05-12 15:59:00,52.3,33.2,30.05,NNW,335,5.8,5.8,48,0.00,SCT,OVC,0.00,0.0,WeatherDisplay:10.37,2013-05-12 20:59:00,
2013-05-12 16:04:00,51.8,32.7,30.05,NW,308,3.5,3.5,48,0.00,SCT,OVC,0.00,0.0,WeatherDisplay:10.37,2013-05-12 21:04:00,
2013-05-12 16:09:00,51.8,32.7,30.05,WSW,253,5.8,5.8,48,0.00,SCT,OVC,0.00,0.0,WeatherDisplay:10.37,2013-05-12 21:09:00,
2013-05-12 16:14:00,51.8,32.7,30.05,NW,320,5.8,5.8,48,0.00,SCT,OVC,0.00,0.0,WeatherDisplay:10.37,2013-05-12 21:14:00,
2013-05-12 16:19:00,51.6,33.1,30.05,West,280,5.8,5.8,49,0.00,SCT,OVC,0.00,0.0,WeatherDisplay:10.37,2013-05-12 21:19:00,
2013-05-12 16:24:00,51.4,32.9,30.05,NW,325,3.5,4.0,49,0.00,SCT,OVC,0.00,0.0,WeatherDisplay:10.37,2013-05-12 21:24:00,
2013-05-12 16:29:00,51.6,33.1,30.05,West,269,3.5,3.5,49,0.00,SCT,OVC,0.00,0.0,WeatherDisplay:10.37,2013-05-12 21:29:00,
2013-05-12 16:34:00,51.8,32.7,30.05,WNW,294,5.8,5.8,48,0.00,SCT,OVC,0.00,0.0,WeatherDisplay:10.37,2013-05-12 21:34:00,
2013-05-12 16:39:00,52.5,33.4,30.05,West,273,8.1,8.1,48,0.00,SCT,OVC,0.00,0.0,WeatherDisplay:10.37,2013-05-12 21:39:00,
2013-05-12 16:44:00,53.1,33.9,30.05,NNW,338,4.6,4.6,48,0.00,SCT,OVC,0.00,0.0,WeatherDisplay:10.37,2013-05-12 21:44:00,
2013-05-12 16:49:00,53.1,33.9,30.05,WNW,295,5.8,5.8,48,0.00,SCT,OVC,0.00,0.0,WeatherDisplay:10.37,2013-05-12 21:49:00,
2013-05-12 16:54:00,52.9,32.6,30.05,West,259,4.6,4.6,46,0.00,SCT,OVC,0.00,0.0,WeatherDisplay:10.37,2013-05-12 21:54:00,
2013-05-12 16:59:00,53.1,32.8,30.05,North,357,5.8,5.8,46,0.00,SCT,OVC,0.00,0.0,WeatherDisplay:10.37,2013-05-12 21:59:00,
2013-05-12 17:04:00,53.2,33.0,30.05,WNW,303,5.8,5.8,46,0.00,BKN,OVC,0.00,0.0,WeatherDisplay:10.37,2013-05-12 22:04:00,
2013-05-12 17:09:00,52.7,32.5,30.05,NW,324,8.1,8.1,46,0.00,BKN,OVC,0.00,0.0,WeatherDisplay:10.37,2013-05-12 22:09:00,
2013-05-12 17:14:00,52.3,32.2,30.05,NW,325,4.6,4.6,46,0.00,BKN,OVC,0.00,0.0,WeatherDisplay:10.37,2013-05-12 22:14:00,
2013-05-12 17:19:00,52.3,32.2,30.05,NW,312,6.9,6.9,46,0.00,BKN,OVC,0.00,0.0,WeatherDisplay:10.37,2013-05-12 22:19:00,
2013-05-12 17:24:00,51.8,31.7,30.05,NNW,330,5.8,5.8,46,0.00,BKN,OVC,0.00,0.0,WeatherDisplay:10.37,2013-05-12 22:24:00,
2013-05-12 17:29:00,51.8,31.7,30.05,West,261,5.8,5.8,46,0.00,BKN,OVC,0.00,0.0,WeatherDisplay:10.37,2013-05-12 22:29:00,
2013-05-12 17:34:00,52.2,32.0,30.05,North,5,6.9,6.9,46,0.00,BKN,OVC,0.00,0.0,WeatherDisplay:10.37,2013-05-12 22:34:00,
2013-05-12 17:39:00,51.8,31.7,30.05,North,0,6.9,6.9,46,0.00,BKN,OVC,0.00,0.0,WeatherDisplay:10.37,2013-05-12 22:39:00,
2013-05-12 17:44:00,51.6,31.5,30.05,NW,311,4.6,4.6,46,0.00,BKN,OVC,0.00,0.0,WeatherDisplay:10.37,2013-05-12 22:44:00,
2013-05-12 17:49:00,52.2,32.0,30.05,WNW,283,4.6,4.6,46,0.00,BKN,OVC,0.00,0.0,WeatherDisplay:10.37,2013-05-12 22:49:00,
2013-05-12 17:54:00,53.2,33.0,30.05,WNW,300,5.8,5.8,46,0.00,BKN,OVC,0.00,0.0,WeatherDisplay:10.37,2013-05-12 22:54:00,
2013-05-12 17:59:00,53.6,32.8,30.05,West,261,5.8,5.8,45,0.00,BKN,OVC,0.00,0.0,WeatherDisplay:10.37,2013-05-12 22:59:00,
2013-05-12 18:04:00,53.1,32.8,30.05,WSW,257,5.8,5.8,46,0.00,SCT,OVC,0.00,0.0,WeatherDisplay:10.37,2013-05-12 23:04:00,
2013-05-12 18:09:00,52.5,32.3,30.05,NNW,329,4.6,4.6,46,0.00,SCT,OVC,0.00,0.0,WeatherDisplay:10.37,2013-05-12 23:09:00,
2013-05-12 18:14:00,52.5,32.3,30.05,NW,316,6.9,6.9,46,0.00,SCT,OVC,0.00,0.0,WeatherDisplay:10.37,2013-05-12 23:14:00,
2013-05-12 18:19:00,52.2,32.0,30.05,NNW,334,5.8,5.8,46,0.00,SCT,OVC,0.00,0.0,WeatherDisplay:10.37,2013-05-12 23:19:00,
2013-05-12 18:24:00,52.2,32.0,30.05,WNW,295,6.9,6.9,46,0.00,SCT,OVC,0.00,0.0,WeatherDisplay:10.37,2013-05-12 23:24:00,
2013-05-12 18:29:00,51.8,31.7,30.05,WNW,303,5.8,5.8,46,0.00,SCT,OVC,0.00,0.0,WeatherDisplay:10.37,2013-05-12 23:29:00,
2013-05-12 18:34:00,52.2,32.0,30.05,NW,311,4.6,4.6,46,0.00,SCT,OVC,0.00,0.0,WeatherDisplay:10.37,2013-05-12 23:34:00,
2013-05-12 18:39:00,52.5,32.3,30.05,NW,322,5.8,5.8,46,0.00,SCT,OVC,0.00,0.0,WeatherDisplay:10.37,2013-05-12 23:39:00,
2013-05-12 18:44:00,52.3,32.2,30.02,WNW,287,4.6,4.6,46,0.00,SCT,OVC,0.00,0.0,WeatherDisplay:10.37,2013-05-12 23:44:00,
2013-05-12 18:49:00,52.0,31.8,30.02,North,353,5.8,5.8,46,0.00,SCT,OVC,0.00,0.0,WeatherDisplay:10.37,2013-05-12 23:49:00,
2013-05-12 18:54:00,51.8,31.7,30.02,NNW,330,4.6,4.6,46,0.00,SCT,OVC,0.00,0.0,WeatherDisplay:10.37,2013-05-12 23:54:00,
2013-05-12 18:59:00,51.8,31.7,30.05,NW,314,3.5,3.5,46,0.00,SCT,OVC,0.00,0.0,WeatherDisplay:10.37,2013-05-12 23:59:00,
2013-05-12 19:04:00,51.8,31.7,30.05,NNW,333,4.6,4.6,46,0.00,CLR,OVC,0.00,0.0,WeatherDisplay:10.37,2013-05-13 00:04:00,
2013-05-12 19:09:00,51.4,31.3,30.05,NW,314,5.8,5.8,46,0.00,CLR,OVC,0.00,0.0,WeatherDisplay:10.37,2013-05-13 00:09:00,
2013-05-12 19:14:00,51.4,31.3,30.05,North,0,5.8,5.8,46,0.00,CLR,OVC,0.00,0.0,WeatherDisplay:10.37,2013-05-13 00:14:00,
2013-05-12 19:19:00,51.3,31.2,30.05,NW,304,4.6,4.6,46,0.00,CLR,OVC,0.00,0.0,WeatherDisplay:10.37,2013-05-13 00:19:00,
2013-05-12 19:24:00,51.1,31.0,30.05,NW,311,3.5,3.5,46,0.00,CLR,OVC,0.00,0.0,WeatherDisplay:10.37,2013-05-13 00:24:00,
2013-05-12 19:29:00,50.9,30.8,30.05,NNW,331,3.5,3.5,46,0.00,CLR,OVC,0.00,0.0,WeatherDisplay:10.37,2013-05-13 00:29:00,
2013-05-12 19:34:00,50.9,30.8,30.05,West,264,3.5,4.0,46,0.00,CLR,OVC,0.00,0.0,WeatherDisplay:10.37,2013-05-13 00:34:00,
2013-05-12 19:39:00,50.7,30.7,30.05,WNW,292,4.6,4.6,46,0.00,CLR,OVC,0.00,0.0,WeatherDisplay:10.37,2013-05-13 00:39:00,
2013-05-12 19:44:00,50.5,30.5,30.05,NNW,328,3.5,3.5,46,0.00,CLR,OVC,0.00,0.0,WeatherDisplay:10.37,2013-05-13 00:44:00,
2013-05-12 19:49:00,50.2,30.2,30.05,NW,320,2.8,0.0,46,0.00,CLR,OVC,0.00,0.0,WeatherDisplay:10.37,2013-05-13 00:49:00,
2013-05-12 19:54:00,50.0,30.0,30.05,NW,318,3.5,3.5,46,0.00,CLR,OVC,0.00,0.0,WeatherDisplay:10.37,2013-05-13 00:54:00,
2013-05-12 19:59:00,49.8,29.8,30.05,NNW,341,3.5,3.5,46,0.00,CLR,OVC,0.00,0.0,WeatherDisplay:10.37,2013-05-13 00:59:00,
2013-05-12 20:04:00,49.5,29.5,30.05,NNW,328,2.3,0.0,46,0.00,CLR,OVC,0.00,0.0,WeatherDisplay:10.37,2013-05-13 01:04:00,
2013-05-12 20:09:00,49.3,29.4,30.05,NNW,328,0.0,0.0,46,0.00,CLR,OVC,0.00,0.0,WeatherDisplay:10.37,2013-05-13 01:09:00,
2013-05-12 20:14:00,49.1,29.2,30.05,NNW,333,2.3,0.0,46,0.00,CLR,OVC,0.00,0.0,WeatherDisplay:10.37,2013-05-13 01:14:00,
2013-05-12 20:19:00,48.7,28.9,30.05,NNW,333,0.0,0.0,46,0.00,CLR,OVC,0.00,0.0,WeatherDisplay:10.37,2013-05-13 01:19:00,
2013-05-12 20:24:00,48.6,28.7,30.05,NW,312,3.5,0.0,46,0.00,CLR,OVC,0.00,0.0,WeatherDisplay:10.37,2013-05-13 01:24:00,
2013-05-12 20:29:00,48.4,28.5,30.05,NW,312,0.0,0.0,46,0.00,CLR,OVC,0.00,0.0,WeatherDisplay:10.37,2013-05-13 01:29:00,
2013-05-12 20:33:00,48.0,28.7,30.05,NW,312,0.0,0.0,47,0.00,CLR,OVC,0.00,0.0,WeatherDisplay:10.37,2013-05-13 01:33:00,
2013-05-12 20:38:00,47.7,28.4,30.05,NW,312,0.0,0.0,47,0.00,CLR,OVC,0.00,0.0,WeatherDisplay:10.37,2013-05-13 01:38:00,
2013-05-12 20:43:00,47.3,28.1,30.05,NW,312,0.0,0.0,47,0.00,CLR,OVC,0.00,0.0,WeatherDisplay:10.37,2013-05-13 01:43:00,
2013-05-12 20:48:00,46.8,27.6,30.05,NW,312,0.0,0.0,47,0.00,CLR,OVC,0.00,0.0,WeatherDisplay:10.37,2013-05-13 01:48:00,
2013-05-12 20:53:00,45.7,26.6,30.05,NNE,24,3.5,0.0,47,0.00,CLR,OVC,0.00,0.0,WeatherDisplay:10.37,2013-05-13 01:53:00,
2013-05-12 20:58:00,44.8,25.8,30.08,NE,41,4.6,4.6,47,0.00,CLR,OVC,0.00,0.0,WeatherDisplay:10.37,2013-05-13 01:58:00,
2013-05-12 21:03:00,44.8,25.8,30.08,North,9,3.5,3.5,47,0.00,CLR,OVC,0.00,0.0,WeatherDisplay:10.37,2013-05-13 02:03:00,
2013-05-12 21:08:00,45.1,26.1,30.08,East,82,3.5,3.5,47,0.00,CLR,OVC,0.00,0.0,WeatherDisplay:10.37,2013-05-13 02:08:00,
2013-05-12 21:13:00,44.8,25.8,30.08,East,83,3.5,3.5,47,0.00,CLR,OVC,0.00,0.0,WeatherDisplay:10.37,2013-05-13 02:13:00,
2013-05-12 21:18:00,44.6,25.6,30.08,NE,56,4.1,4.1,47,0.00,CLR,OVC,0.00,0.0,WeatherDisplay:10.37,2013-05-13 02:18:00,
2013-05-12 21:23:00,44.2,25.8,30.08,East,89,2.8,2.8,48,0.00,CLR,OVC,0.00,0.0,WeatherDisplay:10.37,2013-05-13 02:23:00,
2013-05-12 21:28:00,43.9,25.4,30.08,East,89,2.3,0.0,48,0.00,CLR,OVC,0.00,0.0,WeatherDisplay:10.37,2013-05-13 02:28:00,
2013-05-12 21:33:00,43.3,25.9,30.08,NE,52,2.3,2.3,50,0.00,CLR,OVC,0.00,0.0,WeatherDisplay:10.37,2013-05-13 02:33:00,
2013-05-12 21:38:00,43.0,25.6,30.08,ENE,69,2.3,0.0,50,0.00,CLR,OVC,0.00,0.0,WeatherDisplay:10.37,2013-05-13 02:38:00,
2013-05-12 21:43:00,42.4,25.6,30.08,ENE,67,2.8,2.8,51,0.00,CLR,OVC,0.00,0.0,WeatherDisplay:10.37,2013-05-13 02:43:00,
2013-05-12 21:48:00,42.3,25.4,30.08,ENE,77,2.3,0.0,51,0.00,CLR,OVC,0.00,0.0,WeatherDisplay:10.37,2013-05-13 02:48:00,
2013-05-12 21:53:00,41.7,24.9,30.08,ENE,74,3.5,0.0,51,0.00,CLR,OVC,0.00,0.0,WeatherDisplay:10.37,2013-05-13 02:53:00,
2013-05-12 21:58:00,41.5,24.7,30.08,ENE,74,2.3,0.0,51,0.00,CLR,OVC,0.00,0.0,WeatherDisplay:10.37,2013-05-13 02:58:00,
2013-05-12 22:03:00,41.2,24.4,30.08,East,86,2.3,0.0,51,0.00,CLR,OVC,0.00,0.0,WeatherDisplay:10.37,2013-05-13 03:03:00,
2013-05-12 22:08:00,41.0,24.2,30.08,East,86,2.3,0.0,51,0.00,CLR,OVC,0.00,0.0,WeatherDisplay:10.37,2013-05-13 03:08:00,
2013-05-12 22:13:00,40.6,23.9,30.11,East,86,2.3,0.0,51,0.00,CLR,OVC,0.00,0.0,WeatherDisplay:10.37,2013-05-13 03:13:00,
2013-05-12 22:18:00,40.3,23.6,30.11,East,86,0.0,0.0,51,0.00,CLR,OVC,0.00,0.0,WeatherDisplay:10.37,2013-05-13 03:18:00,
2013-05-12 22:23:00,39.9,24.2,30.11,East,86,0.0,0.0,53,0.00,CLR,OVC,0.00,0.0,WeatherDisplay:10.37,2013-05-13 03:23:00,
2013-05-12 22:28:00,39.6,23.8,30.11,East,86,0.0,0.0,53,0.00,CLR,OVC,0.00,0.0,WeatherDisplay:10.37,2013-05-13 03:28:00,
2013-05-12 22:33:00,39.2,23.5,30.11,East,86,0.0,0.0,53,0.00,CLR,OVC,0.00,0.0,WeatherDisplay:10.37,2013-05-13 03:33:00,
2013-05-12 22:38:00,39.0,23.8,30.11,East,86,0.0,0.0,54,0.00,CLR,OVC,0.00,0.0,WeatherDisplay:10.37,2013-05-13 03:38:00,
2013-05-12 22:43:00,38.7,23.4,30.11,East,86,0.0,0.0,54,0.00,CLR,OVC,0.00,0.0,WeatherDisplay:10.37,2013-05-13 03:43:00,
2013-05-12 22:48:00,38.1,22.9,30.11,East,86,0.0,0.0,54,0.00,CLR,OVC,0.00,0.0,WeatherDisplay:10.37,2013-05-13 03:48:00,
2013-05-12 22:53:00,37.8,22.6,30.11,East,86,0.0,0.0,54,0.00,CLR,OVC,0.00,0.0,WeatherDisplay:10.37,2013-05-13 03:53:00,
2013-05-12 22:58:00,37.4,22.3,30.11,East,86,0.0,0.0,54,0.00,CLR,OVC,0.00,0.0,WeatherDisplay:10.37,2013-05-13 03:58:00,
2013-05-12 23:01:00,37.0,22.4,30.11,East,86,0.0,0.0,55,0.00,CLR,OVC,0.00,0.0,WeatherDisplay:10.37,2013-05-13 04:01:00,
2013-05-12 23:02:00,37.0,22.4,30.11,East,86,0.0,0.0,55,0.00,CLR,OVC,0.00,0.0,WeatherDisplay:10.37,2013-05-13 04:02:00,
2013-05-12 23:07:00,36.7,22.0,30.11,East,86,0.0,0.0,55,0.00,CLR,OVC,0.00,0.0,WeatherDisplay:10.37,2013-05-13 04:07:00,
2013-05-12 23:12:00,36.3,21.7,30.11,East,86,0.0,0.0,55,0.00,CLR,OVC,0.00,0.0,WeatherDisplay:10.37,2013-05-13 04:12:00,
2013-05-12 23:17:00,36.0,21.3,30.11,East,86,0.0,0.0,55,0.00,CLR,OVC,0.00,0.0,WeatherDisplay:10.37,2013-05-13 04:17:00,
2013-05-12 23:22:00,35.6,21.0,30.11,East,86,0.0,0.0,55,0.00,CLR,OVC,0.00,0.0,WeatherDisplay:10.37,2013-05-13 04:22:00,
2013-05-12 23:27:00,35.1,20.9,30.11,East,86,0.0,0.0,56,0.00,CLR,OVC,0.00,0.0,WeatherDisplay:10.37,2013-05-13 04:27:00,
2013-05-12 23:32:00,34.7,20.6,30.11,East,86,0.0,0.0,56,0.00,CLR,OVC,0.00,0.0,WeatherDisplay:10.37,2013-05-13 04:32:00,
2013-05-12 23:37:00,34.3,20.7,30.11,East,86,0.0,0.0,57,0.00,CLR,OVC,0.00,0.0,WeatherDisplay:10.37,2013-05-13 04:37:00,
2013-05-12 23:42:00,34.0,20.7,30.11,East,86,0.0,0.0,58,0.00,CLR,OVC,0.00,0.0,WeatherDisplay:10.37,2013-05-13 04:42:00,
2013-05-12 23:47:00,33.8,20.6,30.11,East,86,0.0,0.0,58,0.00,CLR,OVC,0.00,0.0,WeatherDisplay:10.37,2013-05-13 04:47:00,
2013-05-12 23:52:00,33.3,20.5,30.11,East,86,0.0,0.0,59,0.00,CLR,OVC,0.00,0.0,WeatherDisplay:10.37,2013-05-13 04:52:00,
2013-05-12 23:57:00,33.1,20.7,30.11,East,86,0.0,0.0,60,0.00,CLR,OVC,0.00,0.0,WeatherDisplay:10.37,2013-05-13 04:57:00,